createdAt,value
2019-06-27T00:00:26.656Z,63.92
2019-06-27T00:01:26.609Z,64.61
2019-06-27T00:02:26.609Z,64.22
2019-06-27T00:03:26.582Z,64.12
2019-06-27T00:04:26.646Z,64.01
2019-06-27T00:05:26.561Z,64.01
2019-06-27T00:06:26.550Z,64.12
2019-06-27T00:07:26.612Z,63.72
2019-06-27T00:08:26.536Z,63.62
2019-06-27T00:09:26.519Z,63.72
2019-06-27T00:10:26.548Z,63.95
2019-06-27T00:11:26.497Z,63.65
2019-06-27T00:12:26.499Z,63.65
2019-06-27T00:13:26.516Z,63.85
2019-06-27T00:14:26.477Z,63.75
2019-06-27T00:15:26.459Z,63.75
2019-06-27T00:16:26.497Z,63.75
2019-06-27T00:17:26.474Z,64.04
2019-06-27T00:18:26.422Z,64.04
2019-06-27T00:19:26.417Z,64.04
2019-06-27T00:20:26.410Z,64.15
2019-06-27T00:21:26.435Z,63.75
2019-06-27T00:22:26.376Z,63.65
2019-06-27T00:23:26.413Z,63.75
2019-06-27T00:24:26.363Z,63.45
2019-06-27T00:25:26.346Z,63.35
2019-06-27T00:26:26.343Z,63.75
2019-06-27T00:27:26.322Z,63.85
2019-06-27T00:28:26.377Z,63.78
2019-06-27T00:29:26.343Z,63.78
2019-06-27T00:30:26.302Z,63.68
2019-06-27T00:31:26.296Z,63.68
2019-06-27T00:32:26.312Z,63.68
2019-06-27T00:33:26.263Z,63.58
2019-06-27T00:34:26.255Z,63.58
2019-06-27T00:35:26.248Z,63.68
2019-06-27T00:36:26.238Z,63.98
2019-06-27T00:37:26.256Z,63.88
2019-06-27T00:38:26.246Z,63.78
2019-06-27T00:39:26.214Z,63.68
2019-06-27T00:40:26.179Z,63.58
2019-06-27T00:41:26.175Z,64.11
2019-06-27T00:42:26.372Z,63.81
2019-06-27T00:43:26.156Z,63.91
2019-06-27T00:44:26.138Z,63.71
2019-06-27T00:45:26.168Z,63.81
2019-06-27T00:46:26.147Z,63.71
2019-06-27T00:47:26.126Z,63.81
2019-06-27T00:48:26.144Z,64.01
2019-06-27T00:49:26.095Z,63.94
2019-06-27T00:50:26.077Z,64.01
2019-06-27T00:51:26.106Z,64.31
2019-06-27T00:52:26.058Z,64.04
2019-06-27T00:53:26.051Z,64.34
2019-06-27T00:54:26.074Z,64.31
2019-06-27T00:55:26.031Z,64.31
2019-06-27T00:56:26.007Z,64.61
2019-06-27T00:57:26.131Z,64.81
2019-06-27T00:58:26.023Z,64.74
2019-06-27T00:59:26.019Z,64.94
2019-06-27T01:00:26.013Z,65.34
2019-06-27T01:01:26.021Z,65.53
2019-06-27T01:02:25.940Z,65.44
2019-06-27T01:03:25.928Z,65.53
2019-06-27T01:04:25.926Z,65.97
2019-06-27T01:05:25.947Z,65.83
2019-06-27T01:06:25.935Z,65.87
2019-06-27T01:07:25.914Z,65.64
2019-06-27T01:08:25.923Z,65.64
2019-06-27T01:09:25.870Z,66.13
2019-06-27T01:10:25.864Z,66.03
2019-06-27T01:11:25.842Z,66.66
2019-06-27T01:12:25.849Z,66.73
2019-06-27T01:13:25.818Z,66.83
2019-06-27T01:14:25.851Z,66.73
2019-06-27T01:15:25.806Z,67.46
2019-06-27T01:16:25.797Z,67.66
2019-06-27T01:17:25.777Z,67.49
2019-06-27T01:18:25.765Z,66.86
2019-06-27T01:19:25.756Z,67.46
2019-06-27T01:20:25.805Z,67.57
2019-06-27T01:21:25.736Z,67.60
2019-06-27T01:22:25.727Z,67.19
2019-06-27T01:23:25.711Z,67.49
2019-06-27T01:24:25.714Z,67.90
2019-06-27T01:25:25.690Z,67.49
2019-06-27T01:26:25.727Z,67.99
2019-06-27T01:27:29.981Z,67.90
2019-06-27T01:28:25.655Z,68.10
2019-06-27T01:29:25.648Z,68.49
2019-06-27T01:30:25.705Z,67.99
2019-06-27T01:31:25.669Z,67.49
2019-06-27T01:32:25.655Z,68.19
2019-06-27T01:33:25.615Z,68.10
2019-06-27T01:34:25.596Z,67.43
2019-06-27T01:35:25.644Z,67.43
2019-06-27T01:36:25.565Z,67.43
2019-06-27T01:37:25.626Z,68.36
2019-06-27T01:38:25.557Z,68.76
2019-06-27T01:39:25.548Z,68.56
2019-06-27T01:40:25.569Z,68.46
2019-06-27T01:41:25.520Z,68.26
2019-06-27T01:42:25.541Z,68.26
2019-06-27T01:43:25.493Z,67.96
2019-06-27T01:44:25.520Z,68.76
2019-06-27T01:45:25.469Z,67.86
2019-06-27T01:46:25.463Z,67.66
2019-06-27T01:47:25.444Z,67.96
2019-06-27T01:48:25.462Z,67.56
2019-06-27T01:49:25.475Z,67.56
2019-06-27T01:50:25.457Z,67.36
2019-06-27T01:51:25.408Z,67.49
2019-06-27T01:52:25.405Z,67.59
2019-06-27T01:53:25.423Z,67.69
2019-06-27T01:54:25.378Z,67.59
2019-06-27T01:55:25.410Z,67.69
2019-06-27T01:56:25.346Z,67.89
2019-06-27T01:57:25.338Z,67.89
2019-06-27T01:58:25.343Z,67.59
2019-06-27T01:59:25.312Z,67.69
2019-06-27T02:00:25.302Z,68.09
2019-06-27T02:01:25.332Z,68.29
2019-06-27T02:02:25.278Z,68.19
2019-06-27T02:03:25.268Z,67.79
2019-06-27T02:04:25.261Z,67.72
2019-06-27T02:05:25.302Z,68.52
2019-06-27T02:06:25.260Z,68.82
2019-06-27T02:07:25.277Z,68.62
2019-06-27T02:08:25.219Z,68.32
2019-06-27T02:09:25.246Z,68.62
2019-06-27T02:10:25.200Z,68.43
2019-06-27T02:11:25.184Z,68.23
2019-06-27T02:12:25.172Z,68.52
2019-06-27T02:13:25.167Z,68.73
2019-06-27T02:14:25.195Z,68.46
2019-06-27T02:15:25.189Z,68.76
2019-06-27T02:16:25.126Z,68.55
2019-06-27T02:17:25.121Z,68.96
2019-06-27T02:18:25.108Z,68.66
2019-06-27T02:19:25.096Z,69.29
2019-06-27T02:20:25.123Z,69.26
2019-06-27T02:21:25.069Z,69.36
2019-06-27T02:22:25.057Z,69.29
2019-06-27T02:23:25.087Z,69.59
2019-06-27T02:24:25.076Z,69.39
2019-06-27T02:25:25.024Z,69.79
2019-06-27T02:26:25.016Z,69.59
2019-06-27T02:27:25.051Z,69.79
2019-06-27T02:28:25.048Z,69.99
2019-06-27T02:29:24.992Z,70.09
2019-06-27T02:30:25.013Z,69.99
2019-06-27T02:31:24.957Z,70.39
2019-06-27T02:32:24.955Z,70.50
2019-06-27T02:33:24.978Z,70.19
2019-06-27T02:34:24.924Z,70.19
2019-06-27T02:35:24.922Z,70.29
2019-06-27T02:36:24.926Z,70.39
2019-06-27T02:37:24.955Z,70.19
2019-06-27T02:38:24.891Z,70.50
2019-06-27T02:39:24.868Z,70.32
2019-06-27T02:40:24.907Z,70.53
2019-06-27T02:41:24.892Z,70.62
2019-06-27T02:42:24.836Z,70.50
2019-06-27T02:43:24.827Z,70.50
2019-06-27T02:44:24.812Z,70.29
2019-06-27T02:45:24.829Z,69.89
2019-06-27T02:46:24.798Z,70.73
2019-06-27T02:47:24.824Z,70.29
2019-06-27T02:48:24.830Z,70.53
2019-06-27T02:49:24.763Z,70.73
2019-06-27T02:50:24.762Z,70.23
2019-06-27T02:51:24.741Z,70.73
2019-06-27T02:52:24.779Z,70.93
2019-06-27T02:53:24.721Z,70.43
2019-06-27T02:54:24.802Z,71.03
2019-06-27T02:55:24.687Z,70.62
2019-06-27T02:56:24.718Z,70.62
2019-06-27T02:57:24.664Z,70.32
2019-06-27T02:58:30.796Z,71.12
2019-06-27T02:59:25.713Z,70.53
2019-06-27T03:00:24.637Z,71.03
2019-06-27T03:01:24.623Z,71.12
2019-06-27T03:02:24.645Z,70.93
2019-06-27T03:03:24.665Z,71.77
2019-06-27T03:04:24.635Z,71.77
2019-06-27T03:05:24.601Z,71.77
2019-06-27T03:06:24.643Z,71.46
2019-06-27T03:07:24.560Z,71.96
2019-06-27T03:08:24.559Z,71.96
2019-06-27T03:09:24.570Z,70.62
2019-06-27T03:10:24.569Z,71.66
2019-06-27T03:11:24.516Z,71.56
2019-06-27T03:12:24.556Z,72.27
2019-06-27T03:13:24.549Z,71.66
2019-06-27T03:14:24.477Z,71.56
2019-06-27T03:15:24.462Z,71.43
2019-06-27T03:16:24.518Z,71.56
2019-06-27T03:17:24.467Z,72.27
2019-06-27T03:18:24.472Z,71.86
2019-06-27T03:19:24.477Z,71.77
2019-06-27T03:20:24.406Z,72.27
2019-06-27T03:21:24.400Z,72.27
2019-06-27T03:22:24.389Z,72.27
2019-06-27T03:23:24.388Z,72.70
2019-06-27T03:24:24.408Z,72.30
2019-06-27T03:25:24.411Z,72.60
2019-06-27T03:26:24.341Z,72.40
2019-06-27T03:27:24.335Z,72.70
2019-06-27T03:28:24.331Z,72.16
2019-06-27T03:29:24.355Z,71.70
2019-06-27T03:30:24.313Z,72.00
2019-06-27T03:31:24.284Z,72.50
2019-06-27T03:32:24.274Z,72.50
2019-06-27T03:33:24.377Z,72.63
2019-06-27T03:34:24.291Z,72.60
2019-06-27T03:35:24.236Z,72.43
2019-06-27T03:36:24.274Z,73.00
2019-06-27T03:37:24.222Z,72.83
2019-06-27T03:38:24.259Z,73.24
2019-06-27T03:39:24.192Z,73.30
2019-06-27T03:40:24.206Z,73.13
2019-06-27T03:41:24.179Z,73.44
2019-06-27T03:42:24.162Z,73.33
2019-06-27T03:43:24.203Z,73.13
2019-06-27T03:44:24.137Z,73.33
2019-06-27T03:45:24.150Z,73.13
2019-06-27T03:46:24.133Z,73.03
2019-06-27T03:47:24.151Z,73.03
2019-06-27T03:48:24.107Z,72.83
2019-06-27T03:49:24.091Z,73.24
2019-06-27T03:50:24.089Z,73.44
2019-06-27T03:51:24.105Z,73.13
2019-06-27T03:52:24.146Z,73.24
2019-06-27T03:53:24.049Z,72.94
2019-06-27T03:54:24.081Z,73.03
2019-06-27T03:55:24.012Z,73.33
2019-06-27T03:56:24.063Z,73.03
2019-06-27T03:57:24.031Z,72.63
2019-06-27T03:58:23.987Z,72.74
2019-06-27T03:59:23.967Z,73.13
2019-06-27T04:00:23.960Z,73.24
2019-06-27T04:01:23.947Z,73.24
2019-06-27T04:02:23.944Z,73.24
2019-06-27T04:03:23.968Z,73.84
2019-06-27T04:04:23.958Z,73.94
2019-06-27T04:05:23.903Z,74.04
2019-06-27T04:06:23.892Z,73.97
2019-06-27T04:07:23.933Z,74.18
2019-06-27T04:08:23.871Z,74.27
2019-06-27T04:09:23.857Z,74.48
2019-06-27T04:10:23.892Z,73.97
2019-06-27T04:11:23.838Z,73.57
2019-06-27T04:12:23.902Z,74.18
2019-06-27T04:13:23.825Z,74.41
2019-06-27T04:14:23.841Z,74.31
2019-06-27T04:15:23.789Z,73.81
2019-06-27T04:16:23.778Z,74.11
2019-06-27T04:17:23.768Z,73.71
2019-06-27T04:18:23.789Z,74.51
2019-06-27T04:19:23.789Z,74.24
2019-06-27T04:20:23.740Z,74.81
2019-06-27T04:21:23.731Z,74.65
2019-06-27T04:22:23.716Z,74.81
2019-06-27T04:23:23.698Z,74.11
2019-06-27T04:24:23.734Z,74.41
2019-06-27T04:25:23.680Z,73.71
2019-06-27T04:26:23.709Z,74.31
2019-06-27T04:27:23.669Z,73.61
2019-06-27T04:28:23.687Z,73.77
2019-06-27T04:29:33.290Z,73.91
2019-06-27T04:30:24.630Z,74.21
2019-06-27T04:31:23.629Z,74.81
2019-06-27T04:32:23.658Z,73.71
2019-06-27T04:33:23.656Z,74.35
2019-06-27T04:34:23.578Z,74.24
2019-06-27T04:35:23.565Z,74.24
2019-06-27T04:36:23.560Z,74.31
2019-06-27T04:37:23.739Z,74.21
2019-06-27T04:38:23.535Z,74.24
2019-06-27T04:39:23.523Z,74.95
2019-06-27T04:40:23.506Z,74.85
2019-06-27T04:41:23.506Z,74.95
2019-06-27T04:42:23.498Z,74.95
2019-06-27T04:43:23.553Z,74.65
2019-06-27T04:44:23.470Z,74.31
2019-06-27T04:45:23.452Z,74.15
2019-06-27T04:46:23.437Z,74.35
2019-06-27T04:47:23.453Z,74.55
2019-06-27T04:48:23.449Z,74.21
2019-06-27T04:49:23.450Z,73.71
2019-06-27T04:50:23.419Z,74.31
2019-06-27T04:51:23.446Z,73.91
2019-06-27T04:52:23.371Z,74.01
2019-06-27T04:53:23.393Z,74.01
2019-06-27T04:54:23.395Z,73.81
2019-06-27T04:55:23.385Z,74.41
2019-06-27T04:56:23.379Z,74.21
2019-06-27T04:57:23.315Z,74.31
2019-06-27T04:58:23.306Z,74.31
2019-06-27T04:59:23.329Z,74.31
2019-06-27T05:00:23.292Z,74.74
2019-06-27T05:01:23.309Z,74.91
2019-06-27T05:02:23.356Z,74.91
2019-06-27T05:03:23.302Z,74.81
2019-06-27T05:04:23.319Z,75.01
2019-06-27T05:05:23.239Z,74.71
2019-06-27T05:06:23.226Z,75.11
2019-06-27T05:07:23.242Z,74.41
2019-06-27T05:08:23.200Z,74.31
2019-06-27T05:09:23.189Z,73.61
2019-06-27T05:10:23.220Z,74.01
2019-06-27T05:11:23.163Z,74.44
2019-06-27T05:12:23.178Z,73.81
2019-06-27T05:13:23.156Z,74.21
2019-06-27T05:14:23.176Z,74.41
2019-06-27T05:15:23.130Z,74.74
2019-06-27T05:16:23.106Z,74.95
2019-06-27T05:17:23.095Z,74.95
2019-06-27T05:18:23.096Z,75.01
2019-06-27T05:19:23.127Z,74.21
2019-06-27T05:20:23.176Z,74.31
2019-06-27T05:21:23.102Z,74.21
2019-06-27T05:22:23.050Z,74.21
2019-06-27T05:23:23.079Z,74.31
2019-06-27T05:24:23.016Z,74.01
2019-06-27T05:25:23.004Z,73.71
2019-06-27T05:26:23.001Z,74.41
2019-06-27T05:27:23.000Z,74.51
2019-06-27T05:28:23.011Z,74.81
2019-06-27T05:29:22.963Z,75.11
2019-06-27T05:30:22.950Z,74.81
2019-06-27T05:31:22.934Z,74.81
2019-06-27T05:32:22.998Z,74.37
2019-06-27T05:33:22.931Z,73.81
2019-06-27T05:34:22.904Z,74.21
2019-06-27T05:35:22.945Z,74.11
2019-06-27T05:36:22.886Z,73.91
2019-06-27T05:37:22.900Z,74.11
2019-06-27T05:38:22.910Z,74.01
2019-06-27T05:39:22.861Z,74.44
2019-06-27T05:40:22.852Z,74.11
2019-06-27T05:41:22.888Z,74.24
2019-06-27T05:42:22.815Z,74.35
2019-06-27T05:43:22.807Z,74.04
2019-06-27T05:44:22.855Z,74.24
2019-06-27T05:45:22.789Z,74.15
2019-06-27T05:46:22.774Z,74.35
2019-06-27T05:47:22.786Z,74.74
2019-06-27T05:48:22.743Z,74.85
2019-06-27T05:49:22.825Z,74.11
2019-06-27T05:50:22.726Z,72.03
2019-06-27T05:51:22.718Z,72.00
2019-06-27T05:52:22.726Z,70.39
2019-06-27T05:53:22.704Z,71.70
2019-06-27T05:54:22.726Z,70.50
2019-06-27T05:55:22.775Z,70.96
2019-06-27T05:56:22.666Z,70.12
2019-06-27T05:57:22.661Z,70.66
2019-06-27T05:58:22.647Z,70.26
2019-06-27T05:59:22.716Z,70.46
2019-06-27T06:00:28.807Z,70.76
2019-06-27T06:01:23.618Z,70.96
2019-06-27T06:02:22.631Z,69.93
2019-06-27T06:03:22.585Z,70.39
2019-06-27T06:04:24.092Z,70.19
2019-06-27T06:05:22.685Z,70.29
2019-06-27T06:06:22.602Z,70.62
2019-06-27T06:07:22.626Z,70.76
2019-06-27T06:08:22.549Z,70.62
2019-06-27T06:09:22.522Z,70.43
2019-06-27T06:10:22.593Z,69.99
2019-06-27T06:11:22.555Z,68.89
2019-06-27T06:12:22.710Z,68.66
2019-06-27T06:13:22.463Z,69.29
2019-06-27T06:14:22.453Z,68.89
2019-06-27T06:15:22.467Z,69.59
2019-06-27T06:16:22.450Z,69.59
2019-06-27T06:17:22.521Z,69.99
2019-06-27T06:18:22.760Z,69.19
2019-06-27T06:19:22.748Z,70.32
2019-06-27T06:20:22.794Z,69.99
2019-06-27T06:21:22.525Z,68.36
2019-06-27T06:22:22.784Z,68.46
2019-06-27T06:23:23.055Z,68.36
2019-06-27T06:24:22.467Z,68.46
2019-06-27T06:25:22.839Z,68.26
2019-06-27T06:26:22.548Z,68.89
2019-06-27T06:27:22.530Z,69.93
2019-06-27T06:28:22.413Z,70.29
2019-06-27T06:29:22.497Z,69.19
2019-06-27T06:30:23.639Z,68.76
2019-06-27T06:31:22.380Z,69.19
2019-06-27T06:32:22.534Z,69.49
2019-06-27T06:33:25.353Z,70.09
2019-06-27T06:34:23.938Z,69.59
2019-06-27T06:35:22.738Z,70.19
2019-06-27T06:36:23.796Z,69.69
2019-06-27T06:37:22.410Z,70.12
2019-06-27T06:38:22.806Z,69.49
2019-06-27T06:39:22.766Z,70.29
2019-06-27T06:40:23.206Z,70.29
2019-06-27T06:41:23.892Z,68.59
2019-06-27T06:42:22.987Z,68.46
2019-06-27T06:43:24.963Z,68.55
2019-06-27T06:44:22.813Z,68.86
2019-06-27T06:45:22.180Z,67.96
2019-06-27T06:46:22.329Z,68.16
2019-06-27T06:47:26.870Z,68.26
2019-06-27T06:48:25.107Z,68.39
2019-06-27T06:49:24.908Z,68.69
2019-06-27T06:50:24.621Z,69.19
2019-06-27T06:51:22.809Z,69.99
2019-06-27T06:52:22.931Z,70.06
2019-06-27T06:53:24.307Z,70.66
2019-06-27T06:54:23.334Z,70.66
2019-06-27T06:55:22.817Z,70.56
2019-06-27T06:56:24.093Z,70.03
2019-06-27T06:57:24.654Z,70.23
2019-06-27T06:58:25.032Z,69.02
2019-06-27T06:59:25.749Z,70.32
2019-06-27T07:00:23.307Z,70.23
2019-06-27T07:01:22.018Z,70.29
2019-06-27T07:02:22.460Z,68.55
2019-06-27T07:03:22.059Z,67.29
2019-06-27T07:04:23.284Z,66.69
2019-06-27T07:05:22.065Z,67.82
2019-06-27T07:06:22.777Z,67.52
2019-06-27T07:07:23.059Z,68.26
2019-06-27T07:08:24.061Z,67.46
2019-06-27T07:09:24.453Z,68.79
2019-06-27T07:10:23.965Z,68.89
2019-06-27T07:11:25.074Z,69.09
2019-06-27T07:12:23.083Z,68.69
2019-06-27T07:13:23.903Z,68.26
2019-06-27T07:14:26.986Z,68.62
2019-06-27T07:15:24.675Z,67.59
2019-06-27T07:16:23.695Z,66.09
2019-06-27T07:17:23.713Z,66.69
2019-06-27T07:18:25.212Z,66.36
2019-06-27T07:19:25.400Z,65.46
2019-06-27T07:20:23.644Z,65.96
2019-06-27T07:21:23.696Z,64.96
2019-06-27T07:22:23.167Z,65.46
2019-06-27T07:23:23.893Z,65.66
2019-06-27T07:24:24.049Z,65.19
2019-06-27T07:25:23.164Z,64.86
2019-06-27T07:26:23.743Z,65.89
2019-06-27T07:27:26.172Z,65.83
2019-06-27T07:28:24.024Z,66.02
2019-06-27T07:29:22.898Z,66.42
2019-06-27T07:30:22.787Z,67.05
2019-06-27T07:31:23.490Z,67.36
2019-06-27T07:32:23.599Z,66.22
2019-06-27T07:33:24.374Z,67.02
2019-06-27T07:34:22.933Z,66.52
2019-06-27T07:35:23.863Z,65.42
2019-06-27T07:36:22.024Z,66.52
2019-06-27T07:37:23.106Z,66.22
2019-06-27T07:38:24.694Z,66.52
2019-06-27T07:39:22.619Z,66.22
2019-06-27T07:40:21.542Z,66.42
2019-06-27T07:41:21.516Z,65.86
2019-06-27T07:42:21.524Z,66.46
2019-06-27T07:43:21.512Z,66.55
2019-06-27T07:44:21.466Z,66.66
2019-06-27T07:45:21.490Z,66.46
2019-06-27T07:46:25.571Z,66.16
2019-06-27T07:47:21.427Z,66.55
2019-06-27T07:48:21.478Z,66.16
2019-06-27T07:49:21.473Z,66.66
2019-06-27T07:50:21.374Z,66.89
2019-06-27T07:51:21.467Z,66.75
2019-06-27T07:52:21.405Z,66.25
2019-06-27T07:53:21.418Z,66.16
2019-06-27T07:54:21.479Z,66.05
2019-06-27T07:55:21.421Z,66.55
2019-06-27T07:56:21.443Z,65.12
2019-06-27T07:57:21.492Z,64.65
2019-06-27T07:58:21.435Z,66.05
2019-06-27T07:59:21.326Z,65.55
2019-06-27T08:00:21.284Z,66.59
2019-06-27T08:01:34.538Z,65.66
2019-06-27T08:02:22.302Z,65.92
2019-06-27T08:03:21.376Z,65.42
2019-06-27T08:04:21.331Z,65.33
2019-06-27T08:05:21.259Z,65.75
2019-06-27T08:06:21.231Z,64.86
2019-06-27T08:07:21.450Z,65.55
2019-06-27T08:08:21.245Z,65.22
2019-06-27T08:09:21.305Z,64.00
2019-06-27T08:10:21.200Z,63.09
2019-06-27T08:11:21.257Z,62.79
2019-06-27T08:12:21.167Z,64.00
2019-06-27T08:13:21.375Z,63.69
2019-06-27T08:14:21.202Z,63.66
2019-06-27T08:15:21.201Z,62.86
2019-06-27T08:16:22.185Z,62.43
2019-06-27T08:17:21.120Z,62.01
2019-06-27T08:18:21.598Z,61.30
2019-06-27T08:19:21.207Z,61.60
2019-06-27T08:20:21.317Z,61.08
2019-06-27T08:21:23.236Z,60.31
2019-06-27T08:22:21.090Z,61.93
2019-06-27T08:23:21.072Z,61.76
2019-06-27T08:24:21.072Z,62.39
2019-06-27T08:25:20.982Z,62.26
2019-06-27T08:26:21.011Z,61.63
2019-06-27T08:27:20.966Z,61.66
2019-06-27T08:28:21.012Z,61.04
2019-06-27T08:29:20.959Z,60.31
2019-06-27T08:30:21.002Z,60.93
2019-06-27T08:31:20.920Z,61.96
2019-06-27T08:32:21.010Z,61.54
2019-06-27T08:33:20.996Z,60.83
2019-06-27T08:34:21.366Z,60.93
2019-06-27T08:35:21.059Z,61.24
2019-06-27T08:36:20.890Z,60.93
2019-06-27T08:37:20.929Z,61.04
2019-06-27T08:38:22.734Z,60.14
2019-06-27T08:39:21.421Z,60.24
2019-06-27T08:40:21.000Z,60.41
2019-06-27T08:41:21.195Z,59.31
2019-06-27T08:42:22.383Z,59.53
2019-06-27T08:43:21.064Z,59.83
2019-06-27T08:44:20.873Z,59.53
2019-06-27T08:45:20.831Z,60.24
2019-06-27T08:46:21.480Z,60.63
2019-06-27T08:47:21.796Z,59.70
2019-06-27T08:48:21.098Z,59.18
2019-06-27T08:49:21.860Z,58.78
2019-06-27T08:50:20.935Z,59.08
2019-06-27T08:51:21.375Z,58.61
2019-06-27T08:52:20.840Z,58.91
2019-06-27T08:53:20.738Z,58.36
2019-06-27T08:54:21.451Z,58.51
2019-06-27T08:55:23.577Z,58.71
2019-06-27T08:56:23.125Z,59.41
2019-06-27T08:57:24.363Z,59.21
2019-06-27T08:58:25.172Z,59.11
2019-06-27T08:59:21.253Z,59.11
2019-06-27T09:00:21.877Z,58.91
2019-06-27T09:01:20.772Z,58.81
2019-06-27T09:02:21.666Z,59.23
2019-06-27T09:03:21.372Z,58.41
2019-06-27T09:04:21.079Z,57.81
2019-06-27T09:05:20.621Z,56.88
2019-06-27T09:06:21.395Z,56.98
2019-06-27T09:07:20.577Z,57.48
2019-06-27T09:08:20.659Z,56.88
2019-06-27T09:09:20.578Z,56.98
2019-06-27T09:10:20.511Z,57.48
2019-06-27T09:11:20.551Z,57.35
2019-06-27T09:12:20.511Z,57.65
2019-06-27T09:13:20.736Z,57.26
2019-06-27T09:14:20.490Z,57.03
2019-06-27T09:15:20.432Z,57.06
2019-06-27T09:16:20.546Z,56.85
2019-06-27T09:17:21.006Z,57.15
2019-06-27T09:18:20.389Z,57.56
2019-06-27T09:19:20.416Z,56.93
2019-06-27T09:20:20.409Z,56.81
2019-06-27T09:21:20.416Z,55.58
2019-06-27T09:22:20.499Z,56.10
2019-06-27T09:23:20.362Z,55.61
2019-06-27T09:24:20.326Z,56.40
2019-06-27T09:25:20.349Z,55.91
2019-06-27T09:26:20.323Z,56.63
2019-06-27T09:27:20.468Z,56.93
2019-06-27T09:28:20.349Z,56.70
2019-06-27T09:29:20.316Z,56.30
2019-06-27T09:30:21.111Z,55.80
2019-06-27T09:31:20.385Z,55.41
2019-06-27T09:32:25.305Z,56.21
2019-06-27T09:33:21.557Z,55.13
2019-06-27T09:34:21.521Z,56.21
2019-06-27T09:35:20.221Z,55.41
2019-06-27T09:36:20.185Z,54.98
2019-06-27T09:37:20.697Z,55.21
2019-06-27T09:38:21.518Z,54.91
2019-06-27T09:39:20.223Z,54.68
2019-06-27T09:40:20.844Z,55.08
2019-06-27T09:41:21.922Z,54.98
2019-06-27T09:42:22.063Z,54.71
2019-06-27T09:43:22.063Z,55.21
2019-06-27T09:44:22.029Z,55.04
2019-06-27T09:45:20.281Z,54.04
2019-06-27T09:46:20.442Z,55.04
2019-06-27T09:47:21.115Z,55.24
2019-06-27T09:48:21.328Z,55.13
2019-06-27T09:49:22.826Z,54.91
2019-06-27T09:50:21.821Z,54.91
2019-06-27T09:51:22.110Z,53.89
2019-06-27T09:52:21.739Z,54.38
2019-06-27T09:53:24.655Z,53.76
2019-06-27T09:54:22.041Z,53.36
2019-06-27T09:55:21.146Z,53.53
2019-06-27T09:56:22.384Z,53.02
2019-06-27T09:57:22.255Z,52.12
2019-06-27T09:58:27.700Z,52.02
2019-06-27T09:59:19.961Z,52.32
2019-06-27T10:00:19.931Z,51.45
2019-06-27T10:01:20.114Z,52.07
2019-06-27T10:02:19.972Z,51.84
2019-06-27T10:03:20.142Z,51.84
2019-06-27T10:04:28.620Z,51.35
2019-06-27T10:05:22.068Z,51.37
2019-06-27T10:06:26.007Z,51.54
2019-06-27T10:07:22.463Z,51.05
2019-06-27T10:08:22.044Z,51.97
2019-06-27T10:09:22.111Z,51.05
2019-06-27T10:10:22.322Z,51.12
2019-06-27T10:11:21.599Z,51.12
2019-06-27T10:12:21.216Z,50.80
2019-06-27T10:13:22.205Z,49.91
2019-06-27T10:14:21.880Z,50.60
2019-06-27T10:15:21.514Z,49.91
2019-06-27T10:16:22.038Z,49.73
2019-06-27T10:17:21.748Z,49.83
2019-06-27T10:18:20.336Z,50.15
2019-06-27T10:19:20.791Z,51.25
2019-06-27T10:20:22.098Z,49.83
2019-06-27T10:21:20.989Z,49.73
2019-06-27T10:22:21.162Z,49.31
2019-06-27T10:23:21.233Z,49.41
2019-06-27T10:24:20.491Z,49.31
2019-06-27T10:25:20.440Z,48.91
2019-06-27T10:26:21.271Z,48.52
2019-06-27T10:27:19.653Z,49.08
2019-06-27T10:28:19.701Z,47.67
2019-06-27T10:29:19.744Z,47.97
2019-06-27T10:30:19.899Z,47.99
2019-06-27T10:31:19.620Z,47.99
2019-06-27T10:32:19.754Z,48.19
2019-06-27T10:33:21.231Z,48.49
2019-06-27T10:34:19.786Z,48.17
2019-06-27T10:35:19.536Z,47.85
2019-06-27T10:36:19.919Z,46.66
2019-06-27T10:37:19.527Z,46.26
2019-06-27T10:38:19.514Z,47.28
2019-06-27T10:39:19.557Z,47.28
2019-06-27T10:40:19.632Z,46.08
2019-06-27T10:41:19.467Z,46.86
2019-06-27T10:42:19.463Z,46.56
2019-06-27T10:43:19.477Z,45.96
2019-06-27T10:44:19.444Z,45.89
2019-06-27T10:45:19.540Z,46.98
2019-06-27T10:46:19.433Z,47.50
2019-06-27T10:47:19.424Z,47.20
2019-06-27T10:48:19.517Z,48.10
2019-06-27T10:49:19.472Z,47.30
2019-06-27T10:50:19.372Z,47.20
2019-06-27T10:51:19.355Z,47.20
2019-06-27T10:52:19.401Z,46.31
2019-06-27T10:53:19.412Z,46.58
2019-06-27T10:54:19.328Z,46.68
2019-06-27T10:55:19.318Z,45.96
2019-06-27T10:56:19.333Z,45.96
2019-06-27T10:57:19.291Z,46.14
2019-06-27T10:58:19.370Z,45.94
2019-06-27T10:59:19.347Z,45.42
2019-06-27T11:00:19.294Z,44.90
2019-06-27T11:01:19.252Z,44.41
2019-06-27T11:02:19.246Z,44.63
2019-06-27T11:03:19.369Z,44.13
2019-06-27T11:04:19.360Z,44.65
2019-06-27T11:05:19.203Z,45.25
2019-06-27T11:06:19.248Z,44.75
2019-06-27T11:07:19.193Z,46.34
2019-06-27T11:08:19.191Z,46.14
2019-06-27T11:09:19.202Z,45.23
2019-06-27T11:10:19.157Z,44.33
2019-06-27T11:11:19.240Z,44.43
2019-06-27T11:12:19.133Z,45.42
2019-06-27T11:13:19.123Z,44.04
2019-06-27T11:14:19.372Z,44.43
2019-06-27T11:15:19.105Z,44.33
2019-06-27T11:16:19.151Z,44.06
2019-06-27T11:17:19.082Z,44.53
2019-06-27T11:18:21.446Z,44.21
2019-06-27T11:19:19.081Z,44.31
2019-06-27T11:20:19.050Z,44.31
2019-06-27T11:21:19.115Z,44.21
2019-06-27T11:22:19.041Z,44.81
2019-06-27T11:23:19.178Z,43.02
2019-06-27T11:24:19.043Z,44.01
2019-06-27T11:25:19.002Z,44.11
2019-06-27T11:26:18.986Z,44.31
2019-06-27T11:27:19.042Z,42.90
2019-06-27T11:28:18.950Z,43.20
2019-06-27T11:29:18.959Z,42.50
2019-06-27T11:30:19.008Z,44.11
2019-06-27T11:31:18.989Z,42.90
2019-06-27T11:32:19.000Z,42.50
2019-06-27T11:33:32.005Z,42.78
2019-06-27T11:34:19.930Z,42.78
2019-06-27T11:35:19.027Z,42.50
2019-06-27T11:36:18.890Z,42.41
2019-06-27T11:37:18.855Z,42.80
2019-06-27T11:38:18.846Z,42.58
2019-06-27T11:39:18.898Z,42.19
2019-06-27T11:40:18.955Z,41.69
2019-06-27T11:41:18.882Z,42.01
2019-06-27T11:42:18.827Z,42.01
2019-06-27T11:43:18.823Z,42.90
2019-06-27T11:44:18.778Z,42.41
2019-06-27T11:45:18.782Z,42.01
2019-06-27T11:46:18.822Z,42.50
2019-06-27T11:47:18.753Z,41.91
2019-06-27T11:48:18.793Z,42.09
2019-06-27T11:49:18.731Z,41.00
2019-06-27T11:50:18.714Z,40.78
2019-06-27T11:51:18.709Z,40.70
2019-06-27T11:52:18.850Z,41.20
2019-06-27T11:53:18.676Z,40.19
2019-06-27T11:54:18.676Z,40.68
2019-06-27T11:55:18.667Z,40.98
2019-06-27T11:56:18.659Z,40.47
2019-06-27T11:57:18.678Z,39.97
2019-06-27T11:58:18.744Z,40.07
2019-06-27T11:59:18.638Z,40.26
2019-06-27T12:00:18.607Z,39.18
2019-06-27T12:01:18.612Z,39.67
2019-06-27T12:02:18.586Z,39.85
2019-06-27T12:03:18.655Z,39.95
2019-06-27T12:04:18.639Z,39.06
2019-06-27T12:05:18.554Z,38.67
2019-06-27T12:06:18.539Z,39.83
2019-06-27T12:07:18.622Z,38.84
2019-06-27T12:08:18.560Z,39.54
2019-06-27T12:09:18.497Z,39.56
2019-06-27T12:10:18.514Z,39.24
2019-06-27T12:11:18.582Z,38.94
2019-06-27T12:12:18.525Z,38.65
2019-06-27T12:13:18.568Z,39.24
2019-06-27T12:14:18.460Z,39.43
2019-06-27T12:15:18.431Z,38.35
2019-06-27T12:16:18.437Z,38.53
2019-06-27T12:17:18.450Z,38.71
2019-06-27T12:18:18.524Z,38.71
2019-06-27T12:19:18.501Z,38.89
2019-06-27T12:20:18.393Z,37.30
2019-06-27T12:21:18.375Z,37.62
2019-06-27T12:22:18.369Z,37.94
2019-06-27T12:23:18.347Z,37.74
2019-06-27T12:24:18.368Z,38.53
2019-06-27T12:25:18.436Z,38.23
2019-06-27T12:26:18.335Z,37.34
2019-06-27T12:27:18.308Z,37.03
2019-06-27T12:28:18.295Z,37.52
2019-06-27T12:29:18.281Z,37.45
2019-06-27T12:30:18.426Z,37.32
2019-06-27T12:31:20.855Z,36.83
2019-06-27T12:32:18.359Z,36.44
2019-06-27T12:33:18.250Z,36.63
2019-06-27T12:34:18.267Z,36.24
2019-06-27T12:35:18.226Z,36.83
2019-06-27T12:36:18.206Z,36.44
2019-06-27T12:37:18.224Z,35.83
2019-06-27T12:38:18.356Z,36.00
2019-06-27T12:39:18.335Z,35.31
2019-06-27T12:40:18.179Z,36.00
2019-06-27T12:41:18.164Z,36.21
2019-06-27T12:42:31.548Z,35.79
2019-06-27T12:43:19.145Z,34.31
2019-06-27T12:44:18.156Z,35.02
2019-06-27T12:45:18.251Z,35.63
2019-06-27T12:46:18.302Z,35.43
2019-06-27T12:47:18.097Z,36.22
2019-06-27T12:48:18.124Z,35.83
2019-06-27T12:49:18.101Z,35.43
2019-06-27T12:50:18.205Z,35.61
2019-06-27T12:51:18.205Z,34.22
2019-06-27T12:52:18.106Z,34.31